HEAT

Assiut International Airport

Assiut, Egypt
METAR HEAT 160500Z 36006KT CAVOK 09/06 Q1018 NOSIG
Observed Flight Rules
Dec-16 @ 05:00 UTC (53 minutes ago) Visual Flight Rules
Wind Visibility Clouds
360° at 6 knots 10,000+ meters
  • Clear skies
Temperatures Readings
Current 9°C / 48°F
Dewpoint 6°C / 43°F
Humidity 82%
Altimeter 30.06" Hg
Pressure 1018 hPa
Elevation 70
METAR HEAT 160500Z 36006KT CAVOK 09/06 Q1018 NOSIG
Observed Flight Rules
Dec-16 @ 05:00 UTC
(53 minutes ago)
VFR
Wind Visibility
360° at 6 knots 10,000+ meters
Clouds
  • Clear skies
Temperature Dewpoint
9°C / 48°F 6°C / 43°F
Humidity Altimeter Pressure
82% 30.06" Hg 1018 hPa